Andreas, PA

3:23 PM EDT on August 27, 2015 (GMT -0400)
White Bear | | Change Station
CLOSE
Current Station
Personal Weather Station
Location: Summit Hill, PA
Elevation: 1175 ft
Nearby Weather Stations

Elev 1175 ft 40.82 °N, 75.87 °W | Updated 10 minutes ago

Overcast
Overcast
72.3 °F
Feels Like 76 °F
N
4.7
Wind Variable Wind from ESE

Today
High -- | Low -- °F
--% Chance of Precip.
Yesterday
High -- | Low -- °F
Precip. -- in
6:25 AM 7:43 PM
Waxing Gibbous, 94% visible
Pressure 30.09 in
Visibility 10.0 miles
Clouds Few 4900 ft
Overcast 6000 ft
Heat Index 76 °F
Dew Point 57 °F
Humidity 58%
Rainfall 0.00 in
Snow Depth Not available.
UV 2 out of 12
Pollen 9.30 out of 12
Air Quality Not available.
Flu Activity Not available.
METAR KABE 271851Z 32008KT 10SM FEW049 OVC060 23/12 A3009 RMK AO2 SLP188 T02330122
Pressure 30.09 in
Visibility 10.0 miles
Clouds Few 4900 ft
Overcast 6000 ft
Heat Index 76 °F
Dew Point 57 °F
Humidity 58%
Rainfall 0.00 in
Snow Depth Not available.
UV 2 out of 12
Pollen 9.30 out of 12
Air Quality Not available.
Flu Activity Not available.
METAR KABE 271851Z 32008KT 10SM FEW049 OVC060 23/12 A3009 RMK AO2 SLP188 T02330122

10-Day Weather Forecast

×

Almanac

Astronomy

Aug. 27, 2015 Rise Set
Actual Time
Civil Twilight
Nautical Twilight
Astronomical Twilight
Moon
Length of Visible Light
Length of Day
Tomorrow will be .
, % of the Moon is Illuminated

Today's Extremes

State Highs State Lows

Community

WunderPhotos

Upload Photos

1,850,195 photos uploaded!

WunderBlogs® & News

Nearby

Air Quality

  Air Quality AQ Index Pollutant
Not available.

Snow Depth

Station Depth Elevation

Earthquake Activity

City Distance Mag. Time & Date
Minimum magnitude displayed is 2.5.

Coastal Water Temperatures

Place Temperature

Stations

Nearby Weather Stations

Station Location Temp. Windchill Dew Point Humidity Wind Precip. Elev Updated Type